createdAt,value
2022-10-11T00:03:46.878Z,102014.16
2022-10-11T00:08:43.873Z,101878.88
2022-10-11T00:13:41.100Z,101920.41
2022-10-11T00:18:38.890Z,101950.63
2022-10-11T00:23:37.486Z,101839.50
2022-10-11T00:28:36.061Z,101937.72
2022-10-11T00:33:34.175Z,101913.06
2022-10-11T00:38:37.101Z,101940.28
2022-10-11T00:43:46.050Z,101910.91
2022-10-11T00:48:46.437Z,101889.81
2022-10-11T00:53:46.270Z,101840.09
2022-10-11T00:58:49.351Z,101931.25
2022-10-11T01:04:07.335Z,101941.91
2022-10-11T01:09:31.542Z,101847.13
2022-10-11T01:15:10.931Z,101822.53
2022-10-11T01:20:36.318Z,101816.88
2022-10-11T01:25:40.444Z,101892.69
2022-10-11T01:31:10.626Z,101884.88
2022-10-11T01:36:47.256Z,101891.94
2022-10-11T01:41:49.147Z,101900.16
2022-10-11T01:46:47.797Z,101900.22
2022-10-11T01:51:49.061Z,101923.53
2022-10-11T01:57:01.041Z,101835.69
2022-10-11T02:02:10.797Z,101836.78
2022-10-11T02:07:20.890Z,101806.09
2022-10-11T02:12:24.589Z,101920.38
2022-10-11T02:17:33.343Z,101799.69
2022-10-11T02:22:34.648Z,101845.66
2022-10-11T02:27:37.286Z,101831.00
2022-10-11T02:32:40.102Z,101860.06
2022-10-11T02:37:45.274Z,101871.00
2022-10-11T02:42:45.742Z,101906.09
2022-10-11T02:47:46.199Z,101858.13
2022-10-11T02:52:47.346Z,101861.69
2022-10-11T02:57:47.243Z,101842.97
2022-10-11T03:02:45.243Z,101898.38
2022-10-11T03:07:42.428Z,101818.03
2022-10-11T03:12:41.288Z,101872.38
2022-10-11T03:17:38.280Z,101897.13
2022-10-11T03:22:36.351Z,101886.97
2022-10-11T03:27:42.073Z,101842.13
2022-10-11T03:32:47.065Z,101894.59
2022-10-11T03:37:45.363Z,101828.63
2022-10-11T03:42:51.020Z,101873.13
2022-10-11T03:47:51.086Z,101836.00
2022-10-11T03:52:50.400Z,101829.25
2022-10-11T03:57:47.491Z,101891.84
2022-10-11T04:03:06.582Z,101892.31
2022-10-11T04:08:21.534Z,101876.88
2022-10-11T04:13:19.843Z,101820.66
2022-10-11T04:18:30.990Z,101857.28
2022-10-11T04:23:33.867Z,101849.69
2022-10-11T04:28:36.496Z,101819.81
2022-10-11T04:33:37.160Z,101749.81
2022-10-11T04:44:02.190Z,101790.41
2022-10-11T04:50:07.641Z,101897.47
2022-10-11T04:55:08.619Z,101900.03
2022-10-11T05:00:06.575Z,101893.47
2022-10-11T05:05:08.568Z,101843.69
2022-10-11T05:10:14.017Z,101898.16
2022-10-11T05:15:22.224Z,101826.09
2022-10-11T05:20:25.855Z,101865.53
2022-10-11T05:25:27.218Z,101829.75
2022-10-11T05:30:27.062Z,101860.47
2022-10-11T05:35:24.322Z,101861.81
2022-10-11T05:40:27.720Z,101824.28
2022-10-11T05:45:54.343Z,101915.03
2022-10-11T05:51:12.399Z,101781.06
2022-10-11T05:56:41.673Z,101880.53
2022-10-11T06:01:43.390Z,101788.63
2022-10-11T06:28:13.880Z,101879.59
2022-10-11T06:33:11.235Z,101885.38
2022-10-11T06:43:32.474Z,101916.84
2022-10-11T06:48:53.500Z,101825.06
2022-10-11T06:59:24.960Z,101921.22
2022-10-11T07:04:29.788Z,101887.63
2022-10-11T07:09:30.493Z,101869.81
2022-10-11T07:14:32.034Z,101884.25
2022-10-11T07:19:57.830Z,101923.06
2022-10-11T07:24:54.995Z,101879.81
2022-10-11T07:29:55.722Z,101889.06
2022-10-11T07:35:11.178Z,101921.88
2022-10-11T07:40:16.606Z,101884.94
2022-10-11T07:45:17.619Z,101790.38
2022-10-11T07:50:51.093Z,101805.19
2022-10-11T07:56:02.077Z,101888.72
2022-10-11T08:01:18.362Z,101886.44
2022-10-11T08:06:26.766Z,101844.66
2022-10-11T08:11:25.464Z,101836.91
2022-10-11T08:16:25.813Z,101923.75
2022-10-11T08:21:32.616Z,101852.75
2022-10-11T08:26:53.768Z,101881.97
2022-10-11T08:31:51.449Z,101886.75
2022-10-11T08:36:48.476Z,101891.25
2022-10-11T08:41:51.337Z,101882.31
2022-10-11T08:47:00.548Z,101861.81
2022-10-11T08:52:36.263Z,101891.50
2022-10-11T08:57:38.948Z,101864.00
2022-10-11T09:03:29.569Z,101904.91
2022-10-11T09:09:02.529Z,101856.56
2022-10-11T09:14:29.868Z,101866.06
2022-10-11T09:19:53.686Z,101904.47
2022-10-11T09:25:07.600Z,101783.78
2022-10-11T09:30:12.287Z,101797.88
2022-10-11T09:35:43.455Z,101909.28
2022-10-11T09:41:05.535Z,101875.97
2022-10-11T09:46:03.194Z,101841.13
2022-10-11T09:51:19.049Z,101861.75
2022-10-11T09:56:23.675Z,101882.06
2022-10-11T10:01:29.326Z,101850.81
2022-10-11T10:07:00.278Z,101820.84
2022-10-11T10:12:10.950Z,101817.16
2022-10-11T10:17:16.926Z,101793.16
2022-10-11T10:22:19.993Z,101806.38
2022-10-11T10:27:24.039Z,101768.25
2022-10-11T10:32:28.130Z,101795.63
2022-10-11T10:38:30.722Z,101826.56
2022-10-11T10:49:53.088Z,101806.97
2022-10-11T10:54:58.345Z,101767.13
2022-10-11T11:00:14.054Z,101799.97
2022-10-11T11:05:26.131Z,101804.34
2022-10-11T11:10:35.219Z,101732.91
2022-10-11T11:15:39.356Z,101783.16
2022-10-11T11:21:22.151Z,101722.41
2022-10-11T11:32:28.662Z,101767.38
2022-10-11T11:37:34.195Z,101684.66
2022-10-11T11:42:41.929Z,101794.03
2022-10-11T11:48:04.355Z,101715.56
2022-10-11T11:53:09.315Z,101707.38
2022-10-11T11:58:13.787Z,101793.03
2022-10-11T12:03:17.813Z,101790.66
2022-10-11T12:08:26.907Z,101684.00
2022-10-11T12:13:32.267Z,101791.53
2022-10-11T12:18:37.186Z,101708.88
2022-10-11T12:23:46.543Z,101697.13
2022-10-11T12:29:45.764Z,101688.41
2022-10-11T12:34:47.867Z,101769.06
2022-10-11T12:40:29.798Z,101657.50
2022-10-11T12:46:09.027Z,101749.97
2022-10-11T12:51:44.443Z,101728.91
2022-10-11T12:57:46.293Z,101758.00
2022-10-11T13:03:02.203Z,101673.94
2022-10-11T13:08:41.861Z,101748.31
2022-10-11T13:14:08.518Z,101722.56
2022-10-11T13:19:51.186Z,101741.53
2022-10-11T13:24:49.879Z,101704.09
2022-10-11T13:29:50.697Z,101721.09
2022-10-11T13:39:59.948Z,101730.69
2022-10-11T13:45:30.087Z,101661.47
2022-10-11T13:51:21.906Z,101734.69
2022-10-11T13:56:20.143Z,101728.78
2022-10-11T14:01:48.903Z,101717.94
2022-10-11T14:06:52.012Z,101637.16
2022-10-11T14:11:50.572Z,101645.63
2022-10-11T14:17:32.222Z,101705.88
2022-10-11T14:23:21.271Z,101620.75
2022-10-11T14:28:44.556Z,101661.22
2022-10-11T14:34:03.350Z,101672.50
2022-10-11T14:39:00.434Z,101661.97
2022-10-11T14:43:58.365Z,101689.25
2022-10-11T14:48:56.725Z,101686.34
2022-10-11T14:53:58.912Z,101684.41
2022-10-11T14:59:01.099Z,101671.53
2022-10-11T15:04:51.096Z,101724.84
2022-10-11T15:09:55.960Z,101692.28
2022-10-11T15:15:40.449Z,101736.63
2022-10-11T15:20:44.470Z,101716.81
2022-10-11T15:26:40.874Z,101662.38
2022-10-11T15:31:52.369Z,101737.16
2022-10-11T15:36:51.096Z,101742.50
2022-10-11T15:41:48.365Z,101713.72
2022-10-11T15:47:38.409Z,101754.44
2022-10-11T15:58:44.237Z,101737.97
2022-10-11T16:05:44.838Z,101700.38
2022-10-11T16:09:56.622Z,101759.94
2022-10-11T16:15:01.329Z,101704.59
2022-10-11T16:20:15.408Z,101723.19
2022-10-11T16:25:46.163Z,101641.78
2022-10-11T16:30:50.993Z,101719.19
2022-10-11T16:35:50.723Z,101707.16
2022-10-11T16:41:29.183Z,101775.28
2022-10-11T16:46:26.898Z,101679.84
2022-10-11T16:51:34.110Z,101793.41
2022-10-11T16:57:10.882Z,101665.63
2022-10-11T17:02:16.562Z,101800.16
2022-10-11T17:24:55.386Z,101764.25
2022-10-11T17:30:01.919Z,101695.19
2022-10-11T17:35:46.991Z,101783.84
2022-10-11T17:41:00.677Z,101765.34
2022-10-11T17:45:59.685Z,101791.00
2022-10-11T17:52:19.596Z,101793.91
2022-10-11T17:57:35.262Z,101734.03
2022-10-11T18:02:57.223Z,101804.31
2022-10-11T18:07:55.211Z,101682.53
2022-10-11T18:13:23.391Z,101808.69
2022-10-11T18:18:23.164Z,101725.31
2022-10-11T18:23:47.304Z,101808.78
2022-10-11T18:28:47.013Z,101696.16
2022-10-11T18:33:45.888Z,101707.19
2022-10-11T18:38:46.441Z,101805.72
2022-10-11T18:43:59.628Z,101739.53
2022-10-11T18:49:03.055Z,101781.69
2022-10-11T18:54:01.242Z,101772.34
2022-10-11T18:59:19.540Z,101715.47
2022-10-11T19:04:25.268Z,101804.31
2022-10-11T19:09:40.609Z,101804.03
2022-10-11T19:14:53.529Z,101696.25
2022-10-11T19:20:00.625Z,101817.22
2022-10-11T19:25:04.214Z,101799.16
2022-10-11T19:30:07.964Z,101786.97
2022-10-11T19:35:15.266Z,101814.28
2022-10-11T19:40:21.351Z,101753.75
2022-10-11T19:45:21.105Z,101820.41
2022-10-11T19:50:18.340Z,101723.25
2022-10-11T19:55:17.712Z,101771.28
2022-10-11T20:00:17.229Z,101823.94
2022-10-11T20:05:31.230Z,101794.19
2022-10-11T20:10:35.094Z,101824.16
2022-10-11T20:15:42.939Z,101796.09
2022-10-11T20:20:57.551Z,101822.84
2022-10-11T20:26:07.227Z,101829.25
2022-10-11T20:31:11.096Z,101764.59
2022-10-11T20:36:12.609Z,101699.28
2022-10-11T20:41:11.789Z,101736.03
2022-10-11T20:46:11.482Z,101761.22
2022-10-11T20:51:14.497Z,101793.06
2022-10-11T20:56:13.549Z,101824.63
2022-10-11T21:01:14.666Z,101719.19
2022-10-11T21:06:24.335Z,101779.31
2022-10-11T21:11:23.334Z,101820.88
2022-10-11T21:16:24.236Z,101726.97
2022-10-11T21:21:24.155Z,101824.63
2022-10-11T21:26:24.795Z,101714.50
2022-10-11T21:31:22.797Z,101744.34
2022-10-11T21:36:22.233Z,101802.75
2022-10-11T21:41:24.867Z,101773.03
2022-10-11T21:46:32.531Z,101762.16
2022-10-11T21:51:35.582Z,101828.97
2022-10-11T21:56:32.808Z,101802.66
2022-10-11T22:01:30.178Z,101734.00
2022-10-11T22:06:27.413Z,101750.66
2022-10-11T22:11:25.497Z,101795.09
2022-10-11T22:16:23.458Z,101828.47
2022-10-11T22:21:24.160Z,101762.56
2022-10-11T22:26:30.838Z,101787.31
2022-10-11T22:31:41.947Z,101819.16
2022-10-11T22:36:41.943Z,101743.81
2022-10-11T22:42:08.804Z,101763.75
2022-10-11T22:47:16.942Z,101780.69
2022-10-11T22:52:17.272Z,101786.47
2022-10-11T22:57:14.450Z,101814.72
2022-10-11T23:02:12.733Z,101755.19
2022-10-11T23:07:09.892Z,101845.72
2022-10-11T23:12:07.999Z,101820.88
2022-10-11T23:17:10.699Z,101810.88
2022-10-11T23:22:27.554Z,101830.38
2022-10-11T23:27:41.546Z,101785.47
2022-10-11T23:32:43.904Z,101858.94
2022-10-11T23:37:51.758Z,101758.38
2022-10-11T23:43:04.902Z,101756.34
2022-10-11T23:48:05.386Z,101852.00
2022-10-11T23:53:11.729Z,101871.38
2022-10-11T23:58:09.411Z,101848.47
